sensor_id;sensor_type;location;lat;lon;timestamp;P1;durP1;ratioP1;P2;durP2;ratioP2
9489;SDS011;4783;42.734;23.288;2023-05-27T05:44:57;10.85;;;9.77;;
9489;SDS011;4783;42.734;23.288;2023-05-27T05:55:21;12.63;;;10.18;;
9489;SDS011;4783;42.734;23.288;2023-05-27T06:17:09;10.40;;;9.40;;
9489;SDS011;4783;42.734;23.288;2023-05-27T06:19:34;10.65;;;9.65;;
9489;SDS011;4783;42.734;23.288;2023-05-27T06:35:13;11.18;;;9.68;;
9489;SDS011;4783;42.734;23.288;2023-05-27T06:45:20;11.23;;;9.77;;
9489;SDS011;4783;42.734;23.288;2023-05-27T06:47:45;14.05;;;8.95;;
9489;SDS011;4783;42.734;23.288;2023-05-27T06:56:21;10.10;;;9.07;;
9489;SDS011;4783;42.734;23.288;2023-05-27T06:58:47;13.45;;;9.40;;
9489;SDS011;4783;42.734;23.288;2023-05-27T07:06:28;11.55;;;8.50;;
9489;SDS011;4783;42.734;23.288;2023-05-27T07:08:54;10.05;;;8.10;;
9489;SDS011;4783;42.734;23.288;2023-05-27T07:15:37;10.73;;;9.13;;
9489;SDS011;4783;42.734;23.288;2023-05-27T07:22:56;14.50;;;7.97;;
9489;SDS011;4783;42.734;23.288;2023-05-27T07:30:38;11.35;;;8.85;;
9489;SDS011;4783;42.734;23.288;2023-05-27T07:41:48;12.57;;;9.05;;
9489;SDS011;4783;42.734;23.288;2023-05-27T07:50:12;13.93;;;9.10;;
9489;SDS011;4783;42.734;23.288;2023-05-27T07:52:39;22.63;;;16.88;;
9489;SDS011;4783;42.734;23.288;2023-05-27T07:55:04;10.55;;;8.90;;
9489;SDS011;4783;42.734;23.288;2023-05-27T08:02:20;10.50;;;8.77;;
9489;SDS011;4783;42.734;23.288;2023-05-27T08:10:33;10.27;;;8.32;;
9489;SDS011;4783;42.734;23.288;2023-05-27T08:18:09;10.38;;;9.27;;
9489;SDS011;4783;42.734;23.288;2023-05-27T08:51:52;10.02;;;9.02;;
9489;SDS011;4783;42.734;23.288;2023-05-27T08:54:18;10.98;;;9.25;;
9489;SDS011;4783;42.734;23.288;2023-05-27T09:17:46;14.68;;;9.50;;
9489;SDS011;4783;42.734;23.288;2023-05-27T09:20:11;12.50;;;8.93;;
9489;SDS011;4783;42.734;23.288;2023-05-27T09:22:38;13.55;;;9.70;;
9489;SDS011;4783;42.734;23.288;2023-05-27T09:25:03;13.82;;;10.60;;
9489;SDS011;4783;42.734;23.288;2023-05-27T09:37:28;21.95;;;12.50;;
9489;SDS011;4783;42.734;23.288;2023-05-27T09:40:00;16.90;;;9.77;;
9489;SDS011;4783;42.734;23.288;2023-05-27T09:49:39;16.23;;;11.98;;
9489;SDS011;4783;42.734;23.288;2023-05-27T09:52:07;21.77;;;10.43;;
9489;SDS011;4783;42.734;23.288;2023-05-27T09:54:34;10.43;;;8.15;;
9489;SDS011;4783;42.734;23.288;2023-05-27T09:57:00;12.18;;;8.32;;
9489;SDS011;4783;42.734;23.288;2023-05-27T09:59:26;10.70;;;8.65;;
9489;SDS011;4783;42.734;23.288;2023-05-27T10:01:51;11.27;;;8.75;;
9489;SDS011;4783;42.734;23.288;2023-05-27T10:04:17;12.30;;;8.45;;
9489;SDS011;4783;42.734;23.288;2023-05-27T10:06:42;13.85;;;8.13;;
9489;SDS011;4783;42.734;23.288;2023-05-27T10:09:09;10.35;;;6.47;;
9489;SDS011;4783;42.734;23.288;2023-05-27T10:11:34;11.30;;;6.88;;
9489;SDS011;4783;42.734;23.288;2023-05-27T10:14:02;10.50;;;5.70;;
9489;SDS011;4783;42.734;23.288;2023-05-27T10:16:27;11.07;;;5.40;;
9489;SDS011;4783;42.734;23.288;2023-05-27T10:18:53;6.22;;;5.00;;
9489;SDS011;4783;42.734;23.288;2023-05-27T10:21:19;13.10;;;5.13;;
9489;SDS011;4783;42.734;23.288;2023-05-27T10:23:52;6.03;;;5.03;;
9489;SDS011;4783;42.734;23.288;2023-05-27T10:26:17;8.40;;;4.95;;
9489;SDS011;4783;42.734;23.288;2023-05-27T10:28:42;7.95;;;4.88;;
9489;SDS011;4783;42.734;23.288;2023-05-27T10:31:08;8.93;;;5.82;;
9489;SDS011;4783;42.734;23.288;2023-05-27T10:33:35;5.72;;;4.65;;
9489;SDS011;4783;42.734;23.288;2023-05-27T10:36:03;5.65;;;4.63;;
9489;SDS011;4783;42.734;23.288;2023-05-27T10:38:29;5.95;;;4.63;;
9489;SDS011;4783;42.734;23.288;2023-05-27T10:40:58;8.35;;;4.80;;
9489;SDS011;4783;42.734;23.288;2023-05-27T10:43:24;8.40;;;5.15;;
9489;SDS011;4783;42.734;23.288;2023-05-27T10:45:52;5.97;;;4.78;;
9489;SDS011;4783;42.734;23.288;2023-05-27T10:48:27;6.43;;;4.40;;
9489;SDS011;4783;42.734;23.288;2023-05-27T10:50:56;6.47;;;4.80;;
9489;SDS011;4783;42.734;23.288;2023-05-27T10:53:22;6.30;;;5.38;;
9489;SDS011;4783;42.734;23.288;2023-05-27T10:55:47;5.97;;;4.97;;
9489;SDS011;4783;42.734;23.288;2023-05-27T10:58:13;6.30;;;4.60;;
9489;SDS011;4783;42.734;23.288;2023-05-27T11:00:39;9.18;;;6.78;;
9489;SDS011;4783;42.734;23.288;2023-05-27T11:03:15;6.68;;;4.97;;
9489;SDS011;4783;42.734;23.288;2023-05-27T11:05:40;5.72;;;4.82;;
9489;SDS011;4783;42.734;23.288;2023-05-27T11:08:10;8.35;;;4.95;;
9489;SDS011;4783;42.734;23.288;2023-05-27T11:10:36;7.55;;;5.25;;
9489;SDS011;4783;42.734;23.288;2023-05-27T11:13:01;11.35;;;5.13;;
9489;SDS011;4783;42.734;23.288;2023-05-27T11:15:26;5.82;;;4.70;;
9489;SDS011;4783;42.734;23.288;2023-05-27T11:17:51;9.23;;;5.22;;
9489;SDS011;4783;42.734;23.288;2023-05-27T11:20:17;7.53;;;5.22;;
9489;SDS011;4783;42.734;23.288;2023-05-27T11:22:48;8.93;;;4.75;;
9489;SDS011;4783;42.734;23.288;2023-05-27T11:25:13;7.55;;;6.55;;
9489;SDS011;4783;42.734;23.288;2023-05-27T11:27:39;8.13;;;5.30;;
9489;SDS011;4783;42.734;23.288;2023-05-27T11:30:06;15.25;;;6.97;;
9489;SDS011;4783;42.734;23.288;2023-05-27T11:32:33;7.18;;;5.18;;
9489;SDS011;4783;42.734;23.288;2023-05-27T11:34:59;8.23;;;5.45;;
9489;SDS011;4783;42.734;23.288;2023-05-27T11:37:24;6.10;;;4.20;;
9489;SDS011;4783;42.734;23.288;2023-05-27T11:39:56;8.40;;;4.72;;
9489;SDS011;4783;42.734;23.288;2023-05-27T11:42:24;11.70;;;5.17;;
9489;SDS011;4783;42.734;23.288;2023-05-27T11:44:50;7.13;;;4.70;;
9489;SDS011;4783;42.734;23.288;2023-05-27T11:47:16;7.35;;;4.72;;
9489;SDS011;4783;42.734;23.288;2023-05-27T11:49:41;5.18;;;4.18;;
9489;SDS011;4783;42.734;23.288;2023-05-27T11:52:07;6.22;;;4.15;;
9489;SDS011;4783;42.734;23.288;2023-05-27T11:54:32;7.53;;;4.20;;
9489;SDS011;4783;42.734;23.288;2023-05-27T11:56:57;10.27;;;4.40;;
9489;SDS011;4783;42.734;23.288;2023-05-27T11:59:25;6.85;;;4.85;;
9489;SDS011;4783;42.734;23.288;2023-05-27T12:01:51;6.82;;;4.18;;
9489;SDS011;4783;42.734;23.288;2023-05-27T12:04:18;7.80;;;4.50;;
9489;SDS011;4783;42.734;23.288;2023-05-27T12:06:44;7.63;;;4.50;;
9489;SDS011;4783;42.734;23.288;2023-05-27T12:09:09;6.90;;;4.10;;
9489;SDS011;4783;42.734;23.288;2023-05-27T12:11:36;6.18;;;4.30;;
9489;SDS011;4783;42.734;23.288;2023-05-27T12:14:01;11.35;;;4.45;;
9489;SDS011;4783;42.734;23.288;2023-05-27T12:16:26;8.53;;;4.50;;
9489;SDS011;4783;42.734;23.288;2023-05-27T12:18:52;6.38;;;4.40;;
9489;SDS011;4783;42.734;23.288;2023-05-27T12:21:17;5.65;;;4.18;;
9489;SDS011;4783;42.734;23.288;2023-05-27T12:23:42;5.88;;;4.00;;
9489;SDS011;4783;42.734;23.288;2023-05-27T12:26:08;4.50;;;4.00;;
9489;SDS011;4783;42.734;23.288;2023-05-27T12:28:33;6.15;;;4.22;;
9489;SDS011;4783;42.734;23.288;2023-05-27T12:30:58;5.38;;;4.47;;
9489;SDS011;4783;42.734;23.288;2023-05-27T12:33:24;6.63;;;3.97;;
9489;SDS011;4783;42.734;23.288;2023-05-27T12:35:49;6.70;;;4.00;;
9489;SDS011;4783;42.734;23.288;2023-05-27T12:38:15;5.05;;;4.25;;
9489;SDS011;4783;42.734;23.288;2023-05-27T12:40:40;7.33;;;4.20;;
9489;SDS011;4783;42.734;23.288;2023-05-27T12:43:05;9.93;;;7.40;;
9489;SDS011;4783;42.734;23.288;2023-05-27T12:45:31;8.15;;;5.05;;
9489;SDS011;4783;42.734;23.288;2023-05-27T12:47:57;5.97;;;4.57;;
9489;SDS011;4783;42.734;23.288;2023-05-27T12:50:22;5.68;;;4.47;;
9489;SDS011;4783;42.734;23.288;2023-05-27T12:52:48;6.20;;;3.78;;
9489;SDS011;4783;42.734;23.288;2023-05-27T12:55:13;6.38;;;4.47;;
9489;SDS011;4783;42.734;23.288;2023-05-27T12:57:39;6.30;;;4.60;;
9489;SDS011;4783;42.734;23.288;2023-05-27T13:00:04;4.60;;;4.15;;
9489;SDS011;4783;42.734;23.288;2023-05-27T13:02:30;6.68;;;4.00;;
9489;SDS011;4783;42.734;23.288;2023-05-27T13:04:55;7.57;;;4.35;;
9489;SDS011;4783;42.734;23.288;2023-05-27T13:07:21;9.25;;;4.35;;
9489;SDS011;4783;42.734;23.288;2023-05-27T13:09:47;8.68;;;3.53;;
9489;SDS011;4783;42.734;23.288;2023-05-27T13:12:12;8.17;;;4.63;;
9489;SDS011;4783;42.734;23.288;2023-05-27T13:14:37;5.38;;;4.03;;
9489;SDS011;4783;42.734;23.288;2023-05-27T13:17:02;5.93;;;3.50;;
9489;SDS011;4783;42.734;23.288;2023-05-27T13:19:28;6.68;;;3.83;;
9489;SDS011;4783;42.734;23.288;2023-05-27T13:21:53;6.85;;;3.80;;
9489;SDS011;4783;42.734;23.288;2023-05-27T13:24:18;9.80;;;3.92;;
9489;SDS011;4783;42.734;23.288;2023-05-27T13:26:44;6.57;;;4.57;;
9489;SDS011;4783;42.734;23.288;2023-05-27T13:29:09;5.90;;;4.50;;
9489;SDS011;4783;42.734;23.288;2023-05-27T13:31:34;7.43;;;4.10;;
9489;SDS011;4783;42.734;23.288;2023-05-27T13:34:00;4.78;;;3.85;;
9489;SDS011;4783;42.734;23.288;2023-05-27T13:36:25;5.38;;;4.10;;
9489;SDS011;4783;42.734;23.288;2023-05-27T13:38:50;7.13;;;4.03;;
9489;SDS011;4783;42.734;23.288;2023-05-27T13:41:15;4.07;;;3.30;;
9489;SDS011;4783;42.734;23.288;2023-05-27T13:43:41;6.63;;;3.70;;
9489;SDS011;4783;42.734;23.288;2023-05-27T13:46:06;5.43;;;3.70;;
9489;SDS011;4783;42.734;23.288;2023-05-27T13:48:31;8.50;;;4.30;;
9489;SDS011;4783;42.734;23.288;2023-05-27T13:50:57;8.03;;;3.87;;
9489;SDS011;4783;42.734;23.288;2023-05-27T13:53:22;7.57;;;4.28;;
9489;SDS011;4783;42.734;23.288;2023-05-27T13:55:47;5.70;;;4.07;;
9489;SDS011;4783;42.734;23.288;2023-05-27T13:58:13;4.75;;;3.67;;
9489;SDS011;4783;42.734;23.288;2023-05-27T14:00:38;4.07;;;3.67;;
9489;SDS011;4783;42.734;23.288;2023-05-27T14:03:03;4.30;;;3.50;;
9489;SDS011;4783;42.734;23.288;2023-05-27T14:05:28;6.10;;;3.67;;
9489;SDS011;4783;42.734;23.288;2023-05-27T14:07:54;4.82;;;3.90;;
9489;SDS011;4783;42.734;23.288;2023-05-27T14:10:20;4.65;;;3.70;;
9489;SDS011;4783;42.734;23.288;2023-05-27T14:12:45;6.22;;;4.00;;
9489;SDS011;4783;42.734;23.288;2023-05-27T14:15:11;6.88;;;3.72;;
9489;SDS011;4783;42.734;23.288;2023-05-27T14:17:36;6.55;;;3.65;;
9489;SDS011;4783;42.734;23.288;2023-05-27T14:20:02;4.68;;;3.58;;
9489;SDS011;4783;42.734;23.288;2023-05-27T14:22:27;6.90;;;3.88;;
9489;SDS011;4783;42.734;23.288;2023-05-27T14:24:53;5.97;;;3.70;;
9489;SDS011;4783;42.734;23.288;2023-05-27T14:27:18;6.03;;;4.10;;
9489;SDS011;4783;42.734;23.288;2023-05-27T14:29:43;6.53;;;4.00;;
9489;SDS011;4783;42.734;23.288;2023-05-27T14:32:08;3.75;;;3.38;;
9489;SDS011;4783;42.734;23.288;2023-05-27T14:34:34;7.60;;;4.00;;
9489;SDS011;4783;42.734;23.288;2023-05-27T14:36:59;6.13;;;4.28;;
9489;SDS011;4783;42.734;23.288;2023-05-27T14:39:24;6.77;;;4.57;;
9489;SDS011;4783;42.734;23.288;2023-05-27T14:41:50;5.45;;;4.05;;
9489;SDS011;4783;42.734;23.288;2023-05-27T14:44:15;4.70;;;3.70;;
9489;SDS011;4783;42.734;23.288;2023-05-27T14:46:40;6.75;;;4.10;;
9489;SDS011;4783;42.734;23.288;2023-05-27T14:49:05;7.03;;;3.90;;
9489;SDS011;4783;42.734;23.288;2023-05-27T14:51:31;7.30;;;3.90;;
9489;SDS011;4783;42.734;23.288;2023-05-27T14:53:56;4.97;;;4.10;;
9489;SDS011;4783;42.734;23.288;2023-05-27T14:56:21;5.68;;;3.60;;
9489;SDS011;4783;42.734;23.288;2023-05-27T14:58:47;6.18;;;4.18;;
9489;SDS011;4783;42.734;23.288;2023-05-27T15:01:13;8.05;;;4.60;;
9489;SDS011;4783;42.734;23.288;2023-05-27T15:03:38;4.13;;;3.30;;
9489;SDS011;4783;42.734;23.288;2023-05-27T15:06:03;3.50;;;3.20;;
9489;SDS011;4783;42.734;23.288;2023-05-27T15:08:29;8.52;;;3.90;;
9489;SDS011;4783;42.734;23.288;2023-05-27T15:10:54;6.18;;;3.38;;
9489;SDS011;4783;42.734;23.288;2023-05-27T15:13:19;5.83;;;3.70;;
9489;SDS011;4783;42.734;23.288;2023-05-27T15:15:45;5.18;;;3.83;;
9489;SDS011;4783;42.734;23.288;2023-05-27T15:18:11;8.13;;;4.50;;
9489;SDS011;4783;42.734;23.288;2023-05-27T15:20:37;8.48;;;3.92;;
9489;SDS011;4783;42.734;23.288;2023-05-27T15:23:02;4.45;;;3.70;;
9489;SDS011;4783;42.734;23.288;2023-05-27T15:25:28;5.43;;;4.47;;
9489;SDS011;4783;42.734;23.288;2023-05-27T15:27:53;6.80;;;4.27;;
9489;SDS011;4783;42.734;23.288;2023-05-27T15:30:18;6.47;;;4.60;;
9489;SDS011;4783;42.734;23.288;2023-05-27T15:32:44;8.35;;;4.15;;
9489;SDS011;4783;42.734;23.288;2023-05-27T15:35:10;4.10;;;3.65;;
9489;SDS011;4783;42.734;23.288;2023-05-27T15:37:35;6.63;;;3.50;;
9489;SDS011;4783;42.734;23.288;2023-05-27T15:40:01;7.47;;;3.70;;
9489;SDS011;4783;42.734;23.288;2023-05-27T15:42:27;6.00;;;3.65;;
9489;SDS011;4783;42.734;23.288;2023-05-27T15:44:52;3.70;;;3.20;;
9489;SDS011;4783;42.734;23.288;2023-05-27T15:47:17;8.40;;;3.70;;
9489;SDS011;4783;42.734;23.288;2023-05-27T15:49:43;3.90;;;3.50;;
9489;SDS011;4783;42.734;23.288;2023-05-27T15:52:08;5.57;;;3.90;;
9489;SDS011;4783;42.734;23.288;2023-05-27T15:54:36;7.28;;;3.70;;
9489;SDS011;4783;42.734;23.288;2023-05-27T15:57:01;4.47;;;3.45;;
9489;SDS011;4783;42.734;23.288;2023-05-27T15:59:27;6.03;;;3.92;;
9489;SDS011;4783;42.734;23.288;2023-05-27T16:01:52;5.17;;;3.70;;
9489;SDS011;4783;42.734;23.288;2023-05-27T16:04:17;4.63;;;3.13;;
9489;SDS011;4783;42.734;23.288;2023-05-27T16:06:42;4.93;;;3.63;;
9489;SDS011;4783;42.734;23.288;2023-05-27T16:09:08;5.10;;;3.30;;
9489;SDS011;4783;42.734;23.288;2023-05-27T16:11:33;6.38;;;3.97;;
9489;SDS011;4783;42.734;23.288;2023-05-27T16:13:58;5.72;;;4.43;;
9489;SDS011;4783;42.734;23.288;2023-05-27T16:16:23;8.27;;;3.90;;
9489;SDS011;4783;42.734;23.288;2023-05-27T16:18:49;5.73;;;4.40;;
9489;SDS011;4783;42.734;23.288;2023-05-27T16:21:14;5.78;;;3.78;;
9489;SDS011;4783;42.734;23.288;2023-05-27T16:23:39;7.18;;;3.97;;
9489;SDS011;4783;42.734;23.288;2023-05-27T16:26:04;7.43;;;4.40;;
9489;SDS011;4783;42.734;23.288;2023-05-27T16:28:30;5.95;;;4.70;;
9489;SDS011;4783;42.734;23.288;2023-05-27T16:30:55;7.85;;;4.43;;
9489;SDS011;4783;42.734;23.288;2023-05-27T16:33:20;9.93;;;6.30;;
9489;SDS011;4783;42.734;23.288;2023-05-27T16:35:46;7.22;;;5.43;;
9489;SDS011;4783;42.734;23.288;2023-05-27T16:38:11;6.93;;;5.40;;
